createdAt,value
2019-03-12T00:01:04.717Z,2.37
2019-03-12T00:03:31.455Z,3.27
2019-03-12T00:05:58.401Z,2.57
2019-03-12T00:08:25.438Z,2.50
2019-03-12T00:10:55.365Z,2.17
2019-03-12T00:13:23.309Z,2.80
2019-03-12T00:15:50.155Z,2.57
2019-03-12T00:18:16.888Z,2.47
2019-03-12T00:20:43.891Z,3.03
2019-03-12T00:23:11.840Z,2.63
2019-03-12T00:25:38.592Z,2.50
2019-03-12T00:28:07.424Z,2.90
2019-03-12T00:30:34.507Z,2.73
2019-03-12T00:33:01.501Z,2.40
2019-03-12T00:35:28.467Z,3.10
2019-03-12T00:37:55.336Z,3.13
2019-03-12T00:40:22.203Z,2.97
2019-03-12T00:42:48.965Z,2.40
2019-03-12T00:45:15.882Z,2.50
2019-03-12T00:47:42.665Z,3.00
2019-03-12T00:50:09.743Z,3.17
2019-03-12T00:52:36.590Z,3.33
2019-03-12T00:55:05.240Z,2.70
2019-03-12T00:57:32.171Z,2.33
2019-03-12T00:59:59.303Z,2.70
2019-03-12T01:02:26.155Z,3.33
2019-03-12T01:04:52.931Z,3.00
2019-03-12T01:07:20.022Z,2.23
2019-03-12T01:09:47.003Z,2.80
2019-03-12T01:12:13.970Z,2.33
2019-03-12T01:14:40.841Z,2.30
2019-03-12T01:17:07.617Z,1.97
2019-03-12T01:19:34.379Z,2.47
2019-03-12T01:22:01.154Z,2.50
2019-03-12T01:24:27.910Z,2.73
2019-03-12T01:26:54.674Z,3.00
2019-03-12T01:29:21.543Z,2.00
2019-03-12T01:31:50.381Z,2.03
2019-03-12T01:34:17.331Z,2.60
2019-03-12T01:36:44.115Z,2.50
2019-03-12T01:39:11.167Z,2.33
2019-03-12T01:41:38.030Z,3.07
2019-03-12T01:44:04.909Z,2.60
2019-03-12T01:46:31.909Z,2.27
2019-03-12T01:48:58.632Z,2.73
2019-03-12T01:51:25.701Z,3.20
2019-03-12T01:53:52.542Z,2.77
2019-03-12T01:56:19.428Z,2.63
2019-03-12T01:58:46.192Z,3.00
2019-03-12T02:01:13.050Z,2.90
2019-03-12T02:03:40.207Z,2.40
2019-03-12T02:06:07.071Z,2.70
2019-03-12T02:08:34.076Z,2.50
2019-03-12T02:11:00.947Z,2.83
2019-03-12T02:13:29.722Z,3.07
2019-03-12T02:15:56.695Z,3.50
2019-03-12T02:18:23.603Z,3.23
2019-03-12T02:20:50.607Z,3.33
2019-03-12T02:23:17.575Z,3.30
2019-03-12T02:25:44.455Z,4.07
2019-03-12T02:28:11.454Z,4.20
2019-03-12T02:30:38.425Z,4.33
2019-03-12T02:33:05.426Z,3.73
2019-03-12T02:35:32.304Z,4.40
2019-03-12T02:37:59.155Z,4.93
2019-03-12T02:40:26.079Z,4.77
2019-03-12T02:42:52.939Z,4.67
2019-03-12T02:45:19.947Z,4.30
2019-03-12T02:47:46.689Z,4.70
2019-03-12T02:50:13.603Z,4.90
2019-03-12T02:52:40.860Z,5.30
2019-03-12T02:55:08.061Z,4.20
2019-03-12T02:57:35.119Z,5.17
2019-03-12T03:00:03.056Z,5.30
2019-03-12T03:02:29.896Z,5.20
2019-03-12T03:04:56.673Z,5.50
2019-03-12T03:07:58.430Z,4.83
2019-03-12T03:10:25.268Z,5.40
2019-03-12T03:12:52.414Z,4.70
2019-03-12T03:15:21.548Z,5.10
2019-03-12T03:17:48.509Z,4.73
2019-03-12T03:20:15.589Z,4.83
2019-03-12T03:22:42.455Z,5.00
2019-03-12T03:25:09.917Z,4.87
2019-03-12T03:27:37.154Z,4.53
2019-03-12T03:30:06.289Z,5.90
2019-03-12T03:32:33.271Z,5.07
2019-03-12T03:35:00.694Z,5.03
2019-03-12T03:37:27.855Z,5.23
2019-03-12T03:39:54.695Z,4.83
2019-03-12T03:42:21.743Z,4.43
2019-03-12T03:44:48.556Z,3.90
2019-03-12T03:47:19.530Z,4.60
2019-03-12T03:49:44.219Z,4.90
2019-03-12T03:52:11.082Z,4.23
2019-03-12T03:54:38.177Z,5.20
2019-03-12T03:57:05.040Z,4.40
2019-03-12T03:59:31.819Z,4.00
2019-03-12T04:01:58.722Z,3.83
2019-03-12T04:04:25.435Z,4.43
2019-03-12T04:06:52.453Z,3.57
2019-03-12T04:09:19.169Z,3.70
2019-03-12T04:11:46.115Z,4.00
2019-03-12T04:14:13.063Z,3.90
2019-03-12T04:16:39.975Z,3.90
2019-03-12T04:19:06.852Z,3.53
2019-03-12T04:21:35.520Z,3.53
2019-03-12T04:24:02.519Z,3.53
2019-03-12T04:26:29.254Z,3.50
2019-03-12T04:28:56.285Z,3.60
2019-03-12T04:31:23.172Z,3.33
2019-03-12T04:34:17.367Z,3.07
2019-03-12T04:36:44.995Z,3.60
2019-03-12T04:39:11.856Z,3.20
2019-03-12T04:41:38.768Z,3.30
2019-03-12T04:44:05.762Z,4.00
2019-03-12T04:46:32.635Z,3.27
2019-03-12T04:48:59.579Z,3.30
2019-03-12T04:51:26.385Z,3.07
2019-03-12T04:53:53.383Z,3.47
2019-03-12T04:56:20.252Z,3.47
2019-03-12T04:58:47.140Z,3.50
2019-03-12T05:01:13.915Z,3.60
2019-03-12T05:03:40.663Z,3.30
2019-03-12T05:06:07.710Z,3.57
2019-03-12T05:08:34.583Z,4.27
2019-03-12T05:11:01.364Z,4.37
2019-03-12T05:13:30.114Z,4.17
2019-03-12T05:15:57.893Z,3.10
2019-03-12T05:18:24.784Z,2.47
2019-03-12T05:20:51.761Z,3.20
2019-03-12T05:23:18.675Z,3.03
2019-03-12T05:25:45.441Z,3.50
2019-03-12T05:28:12.323Z,3.03
2019-03-12T05:30:39.088Z,3.03
2019-03-12T05:33:06.083Z,2.93
2019-03-12T05:35:33.075Z,3.30
2019-03-12T05:38:00.081Z,3.60
2019-03-12T05:40:27.120Z,3.63
2019-03-12T05:42:53.948Z,3.30
2019-03-12T05:45:20.931Z,4.00
2019-03-12T05:47:47.850Z,3.33
2019-03-12T05:50:14.917Z,3.63
2019-03-12T05:52:41.932Z,3.83
2019-03-12T05:55:09.121Z,4.63
2019-03-12T05:57:36.028Z,3.07
2019-03-12T06:00:03.602Z,3.97
2019-03-12T06:02:30.395Z,3.70
2019-03-12T06:04:57.322Z,3.93
2019-03-12T06:07:24.127Z,3.00
2019-03-12T06:09:52.428Z,3.53
2019-03-12T06:12:19.299Z,3.70
2019-03-12T06:14:46.115Z,3.80
2019-03-12T06:17:13.051Z,3.03
2019-03-12T06:19:39.939Z,3.47
2019-03-12T06:22:06.854Z,3.53
2019-03-12T06:24:33.775Z,3.80
2019-03-12T06:27:00.563Z,3.43
2019-03-12T06:29:27.427Z,3.03
2019-03-12T06:32:01.867Z,3.80
2019-03-12T06:34:46.815Z,3.30
2019-03-12T06:37:36.035Z,3.43
2019-03-12T06:40:21.756Z,3.80
2019-03-12T06:43:26.725Z,4.33
2019-03-12T06:46:04.628Z,3.93
2019-03-12T06:48:57.055Z,3.77
2019-03-12T06:51:42.042Z,3.33
2019-03-12T06:54:17.902Z,4.00
2019-03-12T06:57:06.237Z,3.93
2019-03-12T06:59:44.741Z,3.33
2019-03-12T07:02:23.250Z,3.50
2019-03-12T07:05:07.498Z,4.03
2019-03-12T07:08:00.167Z,4.13
2019-03-12T07:10:35.537Z,4.63
2019-03-12T07:13:20.146Z,5.40
2019-03-12T07:15:53.523Z,3.80
2019-03-12T07:18:28.977Z,4.00
2019-03-12T07:21:33.638Z,4.20
2019-03-12T07:24:23.165Z,3.73
2019-03-12T07:27:08.087Z,3.73
2019-03-12T07:29:44.711Z,4.40
2019-03-12T07:32:33.698Z,3.87
2019-03-12T07:35:38.392Z,4.20
2019-03-12T07:38:29.682Z,3.67
2019-03-12T07:41:22.915Z,4.27
2019-03-12T07:44:00.639Z,4.00
2019-03-12T07:46:40.632Z,4.47
2019-03-12T07:49:25.723Z,3.40
2019-03-12T07:52:02.801Z,4.23
2019-03-12T07:54:47.734Z,3.73
2019-03-12T07:57:21.047Z,4.40
2019-03-12T08:00:10.286Z,4.40
2019-03-12T08:02:58.552Z,4.67
2019-03-12T08:05:45.059Z,4.20
2019-03-12T08:08:17.993Z,4.17
2019-03-12T08:10:55.837Z,4.20
2019-03-12T08:13:35.760Z,4.77
2019-03-12T08:16:11.863Z,4.43
2019-03-12T08:18:50.941Z,4.27
2019-03-12T08:21:36.212Z,4.77
2019-03-12T08:24:41.024Z,4.53
2019-03-12T08:27:26.675Z,4.17
2019-03-12T08:30:13.110Z,4.03
2019-03-12T08:32:56.384Z,4.40
2019-03-12T08:35:42.786Z,5.00
2019-03-12T08:38:27.676Z,4.77
2019-03-12T08:41:00.570Z,4.23
2019-03-12T08:43:52.072Z,4.47
2019-03-12T08:46:45.013Z,4.57
2019-03-12T08:49:23.863Z,4.30
2019-03-12T08:52:09.255Z,4.10
2019-03-12T08:54:53.713Z,4.07
2019-03-12T08:57:33.198Z,4.07
2019-03-12T09:00:12.671Z,4.10
2019-03-12T09:02:58.093Z,5.00
2019-03-12T09:05:41.043Z,4.00
2019-03-12T09:08:20.927Z,4.30
2019-03-12T09:11:03.921Z,3.70
2019-03-12T09:13:53.144Z,3.97
2019-03-12T09:16:38.320Z,4.10
2019-03-12T09:19:24.237Z,3.30
2019-03-12T09:22:20.298Z,3.20
2019-03-12T09:25:28.835Z,3.73
2019-03-12T09:28:16.157Z,2.83
2019-03-12T09:31:14.993Z,3.77
2019-03-12T09:34:08.289Z,3.03
2019-03-12T09:37:05.358Z,2.87
2019-03-12T09:39:57.756Z,2.90
2019-03-12T09:42:49.727Z,3.77
2019-03-12T09:45:39.952Z,3.07
2019-03-12T09:48:28.962Z,3.03
2019-03-12T09:51:31.076Z,2.70
2019-03-12T09:54:17.814Z,2.67
2019-03-12T09:57:01.281Z,2.73
2019-03-12T09:59:54.143Z,2.70
2019-03-12T10:02:43.948Z,3.50
2019-03-12T10:05:34.449Z,3.23
2019-03-12T10:08:36.099Z,2.40
2019-03-12T10:11:23.467Z,3.20
2019-03-12T10:14:09.254Z,3.10
2019-03-12T10:16:55.526Z,3.37
2019-03-12T10:19:45.253Z,3.13
2019-03-12T10:22:32.099Z,2.50
2019-03-12T10:25:33.872Z,2.20
2019-03-12T10:28:18.499Z,2.70
2019-03-12T10:31:08.706Z,2.50
2019-03-12T10:33:59.422Z,3.00
2019-03-12T10:36:52.101Z,2.70
2019-03-12T10:40:35.738Z,3.00
2019-03-12T10:43:29.525Z,2.40
2019-03-12T10:46:16.532Z,2.90
2019-03-12T10:48:46.091Z,3.20
2019-03-12T10:51:17.132Z,2.90
2019-03-12T10:53:46.031Z,3.97
2019-03-12T10:56:15.512Z,2.77
2019-03-12T10:58:44.486Z,2.90
2019-03-12T11:01:12.384Z,2.60
2019-03-12T11:03:44.388Z,3.03
2019-03-12T11:06:12.119Z,3.33
2019-03-12T11:08:40.270Z,2.70
2019-03-12T11:11:08.080Z,3.50
2019-03-12T11:13:35.989Z,2.80
2019-03-12T11:16:08.472Z,2.53
2019-03-12T11:18:37.491Z,3.00
2019-03-12T11:21:05.337Z,2.63
2019-03-12T11:23:32.367Z,3.77
2019-03-12T11:25:59.415Z,3.57
2019-03-12T11:28:26.881Z,2.10
2019-03-12T11:30:53.957Z,2.20
2019-03-12T11:33:20.844Z,2.80
2019-03-12T11:35:47.854Z,2.57
2019-03-12T11:38:14.940Z,3.10
2019-03-12T11:40:42.109Z,2.83
2019-03-12T11:43:09.143Z,2.73
2019-03-12T11:45:37.401Z,2.97
2019-03-12T11:48:05.022Z,2.93
2019-03-12T11:50:32.023Z,3.17
2019-03-12T11:52:59.965Z,2.70
2019-03-12T11:55:27.703Z,3.37
2019-03-12T11:57:54.773Z,2.23
2019-03-12T12:00:28.610Z,3.10
2019-03-12T12:03:00.395Z,2.73
2019-03-12T12:05:24.687Z,2.53
2019-03-12T12:07:51.563Z,3.00
2019-03-12T12:10:18.537Z,2.77
2019-03-12T12:12:45.367Z,2.47
2019-03-12T12:15:12.823Z,2.50
2019-03-12T12:17:39.671Z,2.83
2019-03-12T12:20:07.488Z,2.27
2019-03-12T12:22:34.471Z,1.97
2019-03-12T12:25:01.307Z,2.40
2019-03-12T12:27:28.187Z,2.83
2019-03-12T12:29:55.194Z,3.17
2019-03-12T12:32:22.068Z,2.43
2019-03-12T12:34:49.038Z,2.93
2019-03-12T12:37:15.911Z,2.83
2019-03-12T12:39:42.711Z,3.10
2019-03-12T12:42:09.683Z,3.20
2019-03-12T12:44:36.540Z,2.93
2019-03-12T12:47:03.514Z,2.70
2019-03-12T12:49:31.392Z,3.00
2019-03-12T12:51:58.299Z,2.80
2019-03-12T12:54:25.285Z,2.67
2019-03-12T12:56:52.147Z,2.37
2019-03-12T12:59:18.873Z,3.17
2019-03-12T13:01:45.652Z,3.83
2019-03-12T13:04:12.403Z,3.10
2019-03-12T13:06:39.242Z,2.67
2019-03-12T13:09:07.531Z,3.07
2019-03-12T13:11:35.423Z,2.67
2019-03-12T13:14:03.411Z,3.23
2019-03-12T13:16:30.481Z,2.60
2019-03-12T13:18:58.299Z,2.90
2019-03-12T13:21:27.806Z,3.23
2019-03-12T13:23:54.782Z,2.37
2019-03-12T13:26:22.789Z,2.67
2019-03-12T13:28:53.581Z,2.53
2019-03-12T13:31:23.415Z,2.23
2019-03-12T13:33:51.395Z,3.20
2019-03-12T13:36:22.349Z,2.70
2019-03-12T13:38:50.556Z,3.23
2019-03-12T13:41:18.560Z,3.03
2019-03-12T13:43:46.617Z,2.80
2019-03-12T13:46:14.545Z,2.10
2019-03-12T13:48:42.521Z,3.17
2019-03-12T13:51:10.711Z,2.70
2019-03-12T13:53:38.392Z,2.57
2019-03-12T13:56:06.800Z,2.60
2019-03-12T13:58:33.611Z,2.60
2019-03-12T14:01:00.488Z,3.27
2019-03-12T14:03:28.607Z,2.63
2019-03-12T14:05:56.854Z,2.20
2019-03-12T14:08:24.452Z,2.90
2019-03-12T14:10:52.154Z,3.43
2019-03-12T14:13:24.491Z,2.47
2019-03-12T14:15:51.586Z,2.50
2019-03-12T14:18:23.585Z,2.33
2019-03-12T14:20:53.084Z,3.03
2019-03-12T14:23:25.610Z,2.53
2019-03-12T14:25:52.571Z,6.57
2019-03-12T14:28:19.575Z,3.13
2019-03-12T14:30:46.619Z,2.53
2019-03-12T14:33:13.633Z,2.37
2019-03-12T14:35:50.764Z,3.90
2019-03-12T14:38:09.607Z,2.33
2019-03-12T14:40:36.803Z,2.40
2019-03-12T14:43:04.105Z,2.30
2019-03-12T14:45:31.808Z,2.20
2019-03-12T14:47:58.845Z,1.93
2019-03-12T14:50:25.719Z,2.93
2019-03-12T14:53:00.652Z,2.00
2019-03-12T14:55:27.921Z,4.33
2019-03-12T14:57:54.907Z,5.13
2019-03-12T15:00:22.811Z,3.03
2019-03-12T15:02:49.839Z,1.90
2019-03-12T15:05:17.217Z,2.47
2019-03-12T15:07:44.192Z,2.67
2019-03-12T15:10:11.175Z,2.30
2019-03-12T15:12:38.249Z,2.27
2019-03-12T15:15:05.356Z,1.80
2019-03-12T15:17:32.159Z,2.30
2019-03-12T15:19:59.073Z,1.93
2019-03-12T15:22:26.171Z,1.63
2019-03-12T15:24:53.034Z,1.83
2019-03-12T15:27:19.916Z,1.50
2019-03-12T15:29:46.975Z,1.60
2019-03-12T15:32:13.712Z,1.90
2019-03-12T15:34:40.453Z,1.80
2019-03-12T15:37:07.383Z,2.23
2019-03-12T15:39:34.245Z,1.17
2019-03-12T15:42:01.169Z,1.50
2019-03-12T15:44:27.987Z,1.67
2019-03-12T15:46:54.709Z,1.50
2019-03-12T15:49:21.581Z,1.83
2019-03-12T15:51:48.415Z,1.87
2019-03-12T15:54:21.051Z,2.43
2019-03-12T15:56:47.937Z,1.60
2019-03-12T15:59:14.784Z,1.80
2019-03-12T16:01:41.546Z,1.83
2019-03-12T16:04:08.395Z,2.20
2019-03-12T16:06:35.335Z,2.53
2019-03-12T16:09:04.104Z,2.13
2019-03-12T16:11:31.394Z,1.23
2019-03-12T16:13:58.379Z,2.17
2019-03-12T16:16:25.288Z,1.50
2019-03-12T16:18:52.015Z,1.87
2019-03-12T16:21:19.015Z,1.63
2019-03-12T16:23:46.019Z,1.80
2019-03-12T16:26:13.028Z,1.27
2019-03-12T16:28:39.789Z,1.73
2019-03-12T16:31:06.788Z,1.67
2019-03-12T16:33:33.776Z,1.53
2019-03-12T16:36:00.787Z,1.73
2019-03-12T16:38:27.799Z,1.77
2019-03-12T16:40:54.891Z,1.53
2019-03-12T16:43:22.314Z,1.20
2019-03-12T16:45:49.388Z,1.47
2019-03-12T16:48:16.255Z,1.57
2019-03-12T16:50:42.999Z,1.73
2019-03-12T16:53:09.927Z,1.83
2019-03-12T16:55:36.915Z,1.60
2019-03-12T16:58:03.844Z,1.40
2019-03-12T17:00:30.928Z,1.40
2019-03-12T17:02:57.709Z,1.10
2019-03-12T17:05:26.284Z,1.30
2019-03-12T17:07:53.619Z,1.50
2019-03-12T17:10:20.599Z,1.30
2019-03-12T17:12:47.467Z,1.10
2019-03-12T17:15:14.472Z,1.00
2019-03-12T17:17:41.320Z,1.93
2019-03-12T17:20:10.037Z,2.10
2019-03-12T17:22:36.808Z,0.90
2019-03-12T17:25:04.673Z,1.30
2019-03-12T17:27:31.691Z,0.93
2019-03-12T17:29:58.697Z,1.23
2019-03-12T17:32:25.529Z,1.17
2019-03-12T17:34:52.343Z,1.33
2019-03-12T17:37:19.104Z,1.67
2019-03-12T17:39:46.059Z,1.50
2019-03-12T17:42:13.015Z,1.53
2019-03-12T17:44:40.059Z,1.17
2019-03-12T17:47:06.807Z,1.40
2019-03-12T17:49:33.745Z,1.80
2019-03-12T17:52:00.484Z,1.20
2019-03-12T17:54:27.315Z,1.30
2019-03-12T17:56:54.039Z,1.03
2019-03-12T17:59:20.803Z,1.40
2019-03-12T18:01:47.787Z,1.20
2019-03-12T18:04:14.659Z,1.57
2019-03-12T18:06:41.587Z,1.20
2019-03-12T18:09:09.147Z,1.17
2019-03-12T18:11:36.307Z,1.30
2019-03-12T18:14:03.249Z,1.27
2019-03-12T18:16:40.400Z,1.30
2019-03-12T18:18:59.271Z,1.33
2019-03-12T18:21:26.043Z,1.00
2019-03-12T18:23:52.903Z,1.47
2019-03-12T18:26:20.159Z,1.20
2019-03-12T18:28:47.131Z,1.17
2019-03-12T18:31:14.131Z,1.60
2019-03-12T18:33:41.036Z,1.20
2019-03-12T18:36:07.799Z,1.53
2019-03-12T18:38:34.643Z,1.73
2019-03-12T18:41:01.387Z,1.47
2019-03-12T18:43:28.126Z,1.47
2019-03-12T18:45:54.987Z,1.30
2019-03-12T18:48:21.907Z,1.47
2019-03-12T18:50:49.980Z,1.80
2019-03-12T18:53:16.799Z,1.37
2019-03-12T18:56:09.965Z,1.40
2019-03-12T18:58:37.045Z,1.30
2019-03-12T19:01:11.851Z,1.43
2019-03-12T19:03:38.892Z,1.70
2019-03-12T19:06:05.748Z,1.83
2019-03-12T19:08:32.847Z,1.43
2019-03-12T19:10:59.796Z,1.57
2019-03-12T19:13:26.607Z,1.67
2019-03-12T19:15:53.576Z,1.90
2019-03-12T19:18:20.584Z,1.80
2019-03-12T19:20:47.587Z,1.37
2019-03-12T19:23:14.620Z,1.50
2019-03-12T19:25:41.737Z,1.70
2019-03-12T19:28:08.813Z,1.80
2019-03-12T19:30:35.936Z,2.33
2019-03-12T19:33:05.527Z,2.17
2019-03-12T19:35:32.531Z,1.27
2019-03-12T19:37:59.533Z,1.83
2019-03-12T19:40:26.783Z,2.27
2019-03-12T19:42:53.755Z,1.77
2019-03-12T19:45:20.710Z,1.73
2019-03-12T19:47:47.651Z,1.80
2019-03-12T19:50:15.543Z,1.63
2019-03-12T19:52:42.697Z,1.60
2019-03-12T19:55:11.827Z,2.00
2019-03-12T19:57:38.764Z,1.57
2019-03-12T20:00:07.685Z,1.67
2019-03-12T20:02:34.874Z,2.03
2019-03-12T20:05:01.844Z,1.57
2019-03-12T20:07:28.956Z,1.70
2019-03-12T20:10:21.236Z,1.53
2019-03-12T20:13:25.320Z,1.83
2019-03-12T20:16:27.907Z,1.70
2019-03-12T20:19:30.515Z,1.70
2019-03-12T20:22:32.365Z,1.57
2019-03-12T20:25:49.176Z,1.63
2019-03-12T20:29:06.184Z,1.67
2019-03-12T20:32:09.937Z,2.27
2019-03-12T20:35:34.123Z,1.77
2019-03-12T20:38:57.466Z,2.07
2019-03-12T20:42:02.510Z,1.50
2019-03-12T20:45:10.140Z,2.10
2019-03-12T20:48:02.399Z,1.87
2019-03-12T20:51:14.183Z,1.93
2019-03-12T20:54:35.208Z,1.50
2019-03-12T20:57:52.478Z,2.50
2019-03-12T21:00:57.308Z,1.97
2019-03-12T21:04:01.108Z,1.87
2019-03-12T21:07:24.784Z,1.73
2019-03-12T21:10:28.999Z,1.90
2019-03-12T21:13:32.883Z,1.80
2019-03-12T21:16:38.978Z,1.80
2019-03-12T21:19:55.291Z,1.67
2019-03-12T21:23:03.292Z,2.20
2019-03-12T21:25:48.118Z,1.70
2019-03-12T21:28:53.983Z,1.63
2019-03-12T21:31:20.939Z,1.80
2019-03-12T21:34:03.574Z,1.87
2019-03-12T21:36:37.819Z,1.60
2019-03-12T21:39:09.051Z,2.03
2019-03-12T21:41:41.164Z,2.00
2019-03-12T21:44:09.898Z,2.10
2019-03-12T21:46:37.008Z,1.67
2019-03-12T21:49:09.660Z,1.80
2019-03-12T21:51:37.284Z,1.93
2019-03-12T21:54:08.694Z,1.67
2019-03-12T21:56:39.056Z,1.40
2019-03-12T21:59:05.902Z,1.77
2019-03-12T22:01:32.859Z,2.10
2019-03-12T22:04:01.083Z,1.63
2019-03-12T22:06:27.862Z,1.90
2019-03-12T22:08:54.690Z,1.87
2019-03-12T22:11:21.618Z,1.87
2019-03-12T22:13:48.377Z,1.90
2019-03-12T22:16:15.522Z,1.43
2019-03-12T22:18:42.387Z,1.50
2019-03-12T22:21:09.415Z,1.80
2019-03-12T22:23:39.506Z,1.77
2019-03-12T22:26:06.312Z,1.80
2019-03-12T22:28:33.143Z,1.97
2019-03-12T22:31:00.135Z,2.33
2019-03-12T22:33:26.935Z,2.10
2019-03-12T22:35:53.824Z,2.00
2019-03-12T22:38:20.875Z,1.83
2019-03-12T22:40:47.762Z,2.00
2019-03-12T22:43:14.580Z,2.07
2019-03-12T22:45:41.467Z,1.83
2019-03-12T22:48:08.258Z,1.97
2019-03-12T22:50:35.092Z,1.90
2019-03-12T22:53:01.837Z,1.93
2019-03-12T22:55:28.794Z,1.87
2019-03-12T22:57:55.795Z,1.80
2019-03-12T23:00:22.679Z,2.00
2019-03-12T23:02:49.639Z,1.87
2019-03-12T23:05:16.652Z,1.73
2019-03-12T23:07:43.622Z,1.50
2019-03-12T23:10:10.799Z,1.83
2019-03-12T23:12:38.721Z,1.50
2019-03-12T23:15:07.716Z,1.80
2019-03-12T23:17:34.792Z,1.33
2019-03-12T23:20:01.846Z,1.50
2019-03-12T23:22:28.786Z,1.50
2019-03-12T23:24:55.563Z,1.10
2019-03-12T23:27:22.455Z,1.07
2019-03-12T23:29:49.490Z,1.20
2019-03-12T23:32:18.127Z,0.83
2019-03-12T23:34:44.971Z,1.00
2019-03-12T23:37:11.825Z,1.00
2019-03-12T23:39:38.805Z,0.60
2019-03-12T23:42:05.697Z,0.37
2019-03-12T23:44:32.930Z,0.77
2019-03-12T23:47:05.479Z,0.50
2019-03-12T23:49:32.708Z,0.30
2019-03-12T23:51:59.475Z,0.23
2019-03-12T23:54:26.473Z,0.30
2019-03-12T23:56:53.483Z,0.30
2019-03-12T23:59:20.443Z,0.20
